Time;durP1;ratioP1;P1;durP2;ratioP2;P2;SDS_P1;SDS_P2;PMS_P1;PMS_P2;Temp;Humidity;BMP_temperature;BMP_pressure;BME280_temperature;BME280_humidity;BME280_pressure;Samples;Min_cycle;Max_cycle;Signal;HPM_P1;HPM_P2
2022/08/06 00:01:09;;;;;;;6.90;1.42;;;11.00;98.50;;;;;;5055947;28;20037;-44
2022/08/06 00:03:34;;;;;;;4.03;1.30;;;11.00;99.30;;;;;;5056473;28;20047;-43
2022/08/06 00:06:00;;;;;;;4.15;1.50;;;11.10;99.90;;;;;;5057370;28;20500;-45
2022/08/06 00:08:30;;;;;;;5.95;1.27;;;10.80;99.90;;;;;;5057086;28;20541;-47
2022/08/06 00:10:55;;;;;;;7.55;1.83;;;11.00;99.90;;;;;;5056775;28;20048;-46
2022/08/06 00:13:21;;;;;;;7.38;1.63;;;10.60;99.90;;;;;;5057410;28;20040;-44
2022/08/06 00:15:49;;;;;;;5.00;1.77;;;10.70;99.90;;;;;;5055928;28;20040;-44
2022/08/06 00:18:14;;;;;;;5.13;1.50;;;10.80;99.90;;;;;;5055215;28;20036;-43
2022/08/06 00:20:40;;;;;;;3.45;1.45;;;10.80;99.90;;;;;;5055811;28;20048;-44
2022/08/06 00:23:09;;;;;;;3.88;1.30;;;10.80;99.90;;;;;;5055655;28;20656;-43
2022/08/06 00:25:35;;;;;;;2.92;1.17;;;10.60;99.90;;;;;;5057711;28;20147;-43
2022/08/06 00:28:00;;;;;;;2.78;1.30;;;10.60;99.90;;;;;;5056440;28;20571;-46
2022/08/06 00:30:26;;;;;;;3.55;1.38;;;10.80;99.90;;;;;;5056139;28;20040;-43
2022/08/06 00:32:52;;;;;;;4.22;1.02;;;11.10;99.90;;;;;;5056354;28;21340;-44
2022/08/06 00:35:20;;;;;;;5.72;1.60;;;10.90;99.90;;;;;;5052910;28;20123;-46
2022/08/06 00:37:46;;;;;;;4.35;1.40;;;10.40;99.90;;;;;;5056301;28;20053;-43
2022/08/06 00:40:15;;;;;;;4.63;1.30;;;12.50;99.90;;;;;;5055366;28;20393;-44
2022/08/06 00:42:41;;;;;;;5.07;1.38;;;10.30;99.90;;;;;;5055579;28;20049;-43
2022/08/06 00:45:07;;;;;;;5.60;1.30;;;10.70;99.90;;;;;;5055644;28;20051;-49
2022/08/06 00:47:33;;;;;;;6.82;1.50;;;10.30;99.90;;;;;;5056071;28;20119;-43
2022/08/06 00:49:59;;;;;;;6.30;1.23;;;10.50;99.90;;;;;;5056379;28;20288;-44
2022/08/06 00:52:24;;;;;;;4.97;1.27;;;10.20;99.90;;;;;;5055933;28;20121;-43
2022/08/06 00:54:51;;;;;;;4.13;1.25;;;10.10;99.90;;;;;;5054745;28;20060;-45
2022/08/06 00:57:16;;;;;;;4.30;1.40;;;10.10;99.90;;;;;;5055704;28;20056;-44
2022/08/06 00:59:42;;;;;;;2.80;0.98;;;10.20;99.90;;;;;;5056324;28;20041;-43
2022/08/06 01:02:08;;;;;;;4.63;1.52;;;8.20;99.90;;;;;;5056193;28;20036;-48
2022/08/06 01:04:33;;;;;;;5.50;1.20;;;9.90;99.90;;;;;;5054053;28;20044;-46
2022/08/06 01:06:59;;;;;;;3.85;1.38;;;9.70;99.90;;;;;;5056525;28;20036;-44
2022/08/06 01:09:25;;;;;;;4.93;1.30;;;9.90;99.90;;;;;;5053943;28;20064;-45
2022/08/06 01:11:51;;;;;;;3.05;1.15;;;9.80;99.90;;;;;;5054364;28;20047;-44
2022/08/06 01:14:20;;;;;;;4.15;1.20;;;9.90;99.90;;;;;;5054393;28;20037;-44
2022/08/06 01:16:58;;;;;;;4.20;1.30;;;9.90;99.90;;;;;;5053546;28;20040;-45
2022/08/06 01:19:24;;;;;;;1.48;1.00;;;9.70;99.90;;;;;;5054629;28;20044;-44
2022/08/06 01:22:24;;;;;;;3.15;1.30;;;10.30;99.90;;;;;;5053341;28;20605;-44
2022/08/06 01:24:49;;;;;;;4.97;1.30;;;9.50;99.90;;;;;;5052853;28;20490;-43
2022/08/06 01:27:38;;;;;;;1.88;1.00;;;9.60;99.90;;;;;;5053318;28;20610;-44
2022/08/06 01:30:14;;;;;;;3.53;1.40;;;9.50;99.90;;;;;;5052013;28;20520;-44
2022/08/06 01:33:04;;;;;;;4.47;1.40;;;9.50;99.90;;;;;;5054323;28;20044;-43
2022/08/06 01:35:36;;;;;;;2.97;1.20;;;9.50;99.90;;;;;;5054094;28;20347;-43
2022/08/06 01:38:13;;;;;;;7.70;1.90;;;9.40;99.90;;;;;;5053289;28;20405;-43
2022/08/06 01:40:42;;;;;;;4.00;1.60;;;9.50;99.90;;;;;;5054165;28;20049;-43
2022/08/06 01:43:13;;;;;;;2.97;1.40;;;10.60;99.90;;;;;;5052800;28;20060;-47
2022/08/06 01:45:40;;;;;;;3.45;1.45;;;11.60;99.90;;;;;;5053758;28;20101;-44
2022/08/06 01:48:17;;;;;;;7.20;1.50;;;10.10;99.90;;;;;;5054841;28;20143;-44
2022/08/06 01:50:48;;;;;;;3.53;1.42;;;9.50;99.90;;;;;;5053242;28;20415;-45
2022/08/06 01:53:18;;;;;;;2.40;1.30;;;9.80;99.90;;;;;;5053598;28;20035;-45
2022/08/06 01:55:48;;;;;;;4.32;1.38;;;10.50;99.90;;;;;;5052438;28;20135;-45
2022/08/06 01:58:19;;;;;;;4.25;1.40;;;9.30;99.90;;;;;;5053141;28;20075;-46
2022/08/06 02:00:48;;;;;;;7.22;1.40;;;9.30;99.90;;;;;;5054973;28;20297;-48
2022/08/06 02:03:28;;;;;;;3.55;1.40;;;9.50;99.90;;;;;;5053211;28;20136;-43
2022/08/06 02:05:56;;;;;;;3.72;1.08;;;9.20;99.90;;;;;;5055137;28;20036;-44
2022/08/06 02:08:27;;;;;;;7.57;1.75;;;10.30;99.90;;;;;;5053133;28;20058;-43
2022/08/06 02:10:54;;;;;;;7.30;1.55;;;9.20;99.90;;;;;;5053783;28;20936;-43
2022/08/06 02:13:22;;;;;;;2.92;1.50;;;9.30;99.90;;;;;;5051801;28;20134;-44
2022/08/06 02:15:49;;;;;;;4.80;2.05;;;9.20;99.90;;;;;;5053382;28;20713;-47
2022/08/06 02:18:17;;;;;;;2.95;1.60;;;9.20;99.90;;;;;;5053803;28;20029;-43
2022/08/06 02:20:47;;;;;;;6.15;1.88;;;9.10;99.90;;;;;;5054201;28;20048;-44
2022/08/06 02:23:20;;;;;;;5.20;2.13;;;9.30;99.90;;;;;;5053168;28;20102;-43
2022/08/06 02:25:48;;;;;;;6.03;1.85;;;9.90;99.90;;;;;;5052242;28;20052;-43
2022/08/06 02:28:16;;;;;;;4.38;2.10;;;9.20;99.90;;;;;;5053637;28;20044;-45
2022/08/06 02:30:45;;;;;;;4.10;1.75;;;9.10;99.90;;;;;;5053466;28;20120;-43
2022/08/06 02:33:12;;;;;;;3.85;1.73;;;9.60;99.90;;;;;;5052303;28;20102;-44
2022/08/06 02:35:48;;;;;;;5.03;1.83;;;9.30;99.90;;;;;;5052048;28;20032;-47
2022/08/06 02:38:23;;;;;;;3.35;1.75;;;9.00;99.90;;;;;;5053606;28;20499;-45
2022/08/06 02:40:56;;;;;;;2.90;1.80;;;9.10;99.90;;;;;;5052867;28;20051;-45
2022/08/06 02:43:36;;;;;;;5.65;2.20;;;9.00;99.90;;;;;;5052732;28;20072;-47
2022/08/06 02:46:19;;;;;;;5.00;2.40;;;9.00;99.90;;;;;;5052993;28;20044;-44
2022/08/06 02:48:51;;;;;;;8.05;2.65;;;10.20;99.90;;;;;;5052794;28;20105;-44
2022/08/06 02:51:42;;;;;;;9.23;2.80;;;9.20;99.90;;;;;;5052334;28;20047;-43
2022/08/06 02:54:27;;;;;;;5.32;2.28;;;9.10;99.90;;;;;;5051617;28;20037;-43
2022/08/06 02:57:01;;;;;;;4.97;2.50;;;9.10;99.90;;;;;;5051567;28;20068;-45
2022/08/06 02:59:31;;;;;;;8.32;2.90;;;9.30;99.90;;;;;;5052742;28;20045;-45
2022/08/06 03:02:00;;;;;;;4.97;2.30;;;9.10;99.90;;;;;;5052771;28;20047;-44
2022/08/06 03:04:28;;;;;;;6.07;2.53;;;9.10;99.90;;;;;;5052127;28;20078;-46
2022/08/06 03:06:55;;;;;;;4.47;2.30;;;9.00;99.90;;;;;;5052564;28;20446;-43
2022/08/06 03:09:22;;;;;;;6.07;2.70;;;9.10;99.90;;;;;;5054326;28;20116;-44
2022/08/06 03:11:50;;;;;;;3.80;2.20;;;8.90;99.90;;;;;;5053803;28;20051;-44
2022/08/06 03:14:19;;;;;;;5.03;2.53;;;9.20;99.90;;;;;;5053080;28;20551;-43
2022/08/06 03:16:46;;;;;;;5.38;2.65;;;9.40;99.90;;;;;;5052451;28;20047;-43
2022/08/06 03:19:13;;;;;;;7.20;2.50;;;9.20;99.90;;;;;;5053051;28;20048;-44
2022/08/06 03:21:42;;;;;;;5.20;3.08;;;9.70;99.90;;;;;;5051454;28;20121;-43
2022/08/06 03:24:09;;;;;;;3.65;2.20;;;9.00;99.90;;;;;;5051939;28;20052;-43
2022/08/06 03:26:36;;;;;;;3.25;2.22;;;10.20;99.90;;;;;;5053532;28;20040;-42
2022/08/06 03:29:04;;;;;;;5.30;2.22;;;8.80;99.90;;;;;;5053582;28;20093;-44
2022/08/06 03:31:31;;;;;;;4.50;2.05;;;7.10;99.90;;;;;;5051741;28;20667;-42
2022/08/06 03:33:57;;;;;;;3.75;2.05;;;8.80;99.90;;;;;;5051018;28;20540;-46
2022/08/06 03:36:26;;;;;;;4.35;2.10;;;9.70;99.90;;;;;;5051878;28;20494;-43
2022/08/06 03:39:05;;;;;;;3.72;2.20;;;8.60;99.90;;;;;;5051886;28;20744;-43
2022/08/06 03:41:35;;;;;;;3.50;2.03;;;8.70;99.90;;;;;;5052141;28;20511;-42
2022/08/06 03:44:02;;;;;;;2.60;1.83;;;8.70;99.90;;;;;;5051173;28;20043;-47
2022/08/06 03:46:40;;;;;;;3.63;2.00;;;8.60;99.90;;;;;;5051616;28;20500;-42
2022/08/06 03:49:14;;;;;;;4.40;2.15;;;8.60;99.90;;;;;;5052665;28;20036;-43
2022/08/06 03:51:42;;;;;;;4.18;2.33;;;8.60;99.90;;;;;;5051756;28;20493;-44
2022/08/06 03:54:09;;;;;;;2.85;1.90;;;8.80;99.90;;;;;;5051126;28;20400;-43
2022/08/06 03:56:40;;;;;;;5.57;2.08;;;9.30;99.90;;;;;;5050347;28;21011;-43
2022/08/06 03:59:08;;;;;;;4.55;2.10;;;8.40;99.90;;;;;;5051271;28;20750;-42
2022/08/06 04:01:37;;;;;;;6.22;2.35;;;9.50;99.90;;;;;;5052102;28;20036;-41
2022/08/06 04:04:04;;;;;;;4.57;2.65;;;8.60;99.90;;;;;;5051800;28;20036;-40
2022/08/06 04:06:31;;;;;;;4.97;2.53;;;8.70;99.90;;;;;;5050689;28;20516;-41
2022/08/06 04:09:00;;;;;;;4.10;2.42;;;8.60;99.90;;;;;;5052010;28;20120;-42
2022/08/06 04:11:26;;;;;;;4.50;3.00;;;8.70;99.90;;;;;;5049675;28;20079;-40
2022/08/06 04:13:53;;;;;;;5.03;2.75;;;10.00;99.90;;;;;;5053041;28;20124;-40
2022/08/06 04:16:19;;;;;;;4.55;2.72;;;9.50;99.90;;;;;;5051903;28;20044;-40
2022/08/06 04:18:46;;;;;;;6.40;2.60;;;10.10;99.90;;;;;;5052979;28;20052;-42
2022/08/06 04:21:19;;;;;;;5.22;3.05;;;9.70;99.90;;;;;;5052567;28;20036;-40
2022/08/06 04:23:45;;;;;;;6.40;3.13;;;9.10;99.90;;;;;;5052369;28;20531;-40
2022/08/06 04:26:14;;;;;;;6.80;2.78;;;9.10;99.90;;;;;;5051810;28;20029;-41
2022/08/06 04:28:43;;;;;;;4.45;2.53;;;9.90;99.90;;;;;;5051861;28;21124;-41
2022/08/06 04:31:12;;;;;;;6.20;2.70;;;9.30;99.90;;;;;;5054495;28;20040;-42
2022/08/06 04:33:40;;;;;;;5.45;2.33;;;9.20;99.90;;;;;;5056575;28;20048;-43
2022/08/06 04:36:07;;;;;;;3.60;2.40;;;10.00;99.90;;;;;;5056482;28;20136;-40
2022/08/06 04:38:36;;;;;;;4.50;2.65;;;9.40;99.90;;;;;;5055371;28;20529;-41
2022/08/06 04:41:02;;;;;;;6.40;2.55;;;11.50;99.90;;;;;;5055212;28;20571;-42
2022/08/06 04:43:29;;;;;;;4.60;2.60;;;10.10;99.90;;;;;;5054788;28;20033;-41
2022/08/06 04:45:56;;;;;;;4.82;2.30;;;9.50;99.90;;;;;;5056087;28;20059;-41
2022/08/06 04:48:23;;;;;;;6.22;2.78;;;9.50;99.90;;;;;;5054282;28;20823;-41
2022/08/06 04:50:49;;;;;;;4.60;2.50;;;9.70;99.90;;;;;;5054887;28;20239;-44
2022/08/06 04:53:17;;;;;;;6.80;2.10;;;9.60;99.90;;;;;;5054756;28;20055;-42
2022/08/06 04:55:44;;;;;;;4.75;2.50;;;9.90;99.90;;;;;;5054565;28;20075;-41
2022/08/06 04:58:13;;;;;;;5.57;2.53;;;9.80;99.90;;;;;;5055163;28;20758;-43
2022/08/06 05:00:41;;;;;;;6.68;2.72;;;9.70;99.90;;;;;;5055245;28;20040;-44
2022/08/06 05:03:07;;;;;;;8.10;3.22;;;9.90;99.90;;;;;;5055667;28;20111;-42
2022/08/06 05:05:47;;;;;;;6.65;2.78;;;10.90;99.90;;;;;;5054743;28;20110;-43
2022/08/06 05:08:14;;;;;;;5.80;2.80;;;10.10;99.90;;;;;;5055681;28;20056;-41
2022/08/06 05:11:03;;;;;;;7.05;3.15;;;10.40;99.90;;;;;;5054316;28;20113;-45
2022/08/06 05:13:33;;;;;;;10.65;3.22;;;10.40;99.90;;;;;;5054271;28;20408;-41
2022/08/06 05:16:08;;;;;;;9.35;3.00;;;10.70;99.90;;;;;;5054164;28;20044;-43
2022/08/06 05:18:38;;;;;;;10.15;2.60;;;11.00;99.90;;;;;;5054615;28;20044;-44
2022/08/06 05:21:05;;;;;;;6.60;2.90;;;12.20;99.90;;;;;;5056450;28;20055;-42
2022/08/06 05:23:46;;;;;;;6.55;3.22;;;11.10;99.90;;;;;;5054505;28;20040;-42
2022/08/06 05:26:13;;;;;;;6.03;2.43;;;12.20;99.90;;;;;;5054299;28;20713;-41
2022/08/06 05:28:40;;;;;;;5.80;2.67;;;11.50;99.90;;;;;;5053717;28;20893;-40
2022/08/06 05:31:09;;;;;;;6.80;2.60;;;11.60;99.90;;;;;;5055606;28;20352;-43
2022/08/06 05:33:37;;;;;;;10.38;2.65;;;11.50;99.90;;;;;;5054125;28;20036;-41
2022/08/06 05:36:06;;;;;;;7.07;3.03;;;11.70;99.90;;;;;;5053437;28;20040;-41
2022/08/06 05:38:38;;;;;;;8.43;2.80;;;11.60;99.90;;;;;;5054393;28;20457;-42
2022/08/06 05:41:06;;;;;;;5.03;2.30;;;11.80;99.90;;;;;;5053740;28;20040;-41
2022/08/06 05:43:31;;;;;;;4.13;2.15;;;12.10;99.90;;;;;;5052381;28;20043;-42
2022/08/06 05:46:01;;;;;;;6.95;2.92;;;12.20;99.90;;;;;;5053566;28;20127;-41
2022/08/06 05:48:31;;;;;;;7.43;2.38;;;13.20;99.90;;;;;;5053052;28;20045;-46
2022/08/06 05:51:02;;;;;;;5.78;2.20;;;12.70;99.90;;;;;;5053964;28;20125;-43
2022/08/06 05:53:43;;;;;;;3.72;2.00;;;13.70;99.90;;;;;;5051845;28;20029;-44
2022/08/06 05:56:13;;;;;;;3.83;1.73;;;12.90;99.90;;;;;;5052885;28;20127;-43
2022/08/06 05:58:44;;;;;;;4.57;1.63;;;13.90;99.90;;;;;;5053144;28;20241;-43
2022/08/06 06:01:11;;;;;;;3.53;1.67;;;13.30;99.90;;;;;;5053290;28;20121;-43
2022/08/06 06:03:39;;;;;;;6.32;1.45;;;14.10;99.90;;;;;;5052746;28;20041;-43
2022/08/06 06:06:08;;;;;;;5.00;1.40;;;14.20;99.90;;;;;;5052806;28;20045;-43
2022/08/06 06:08:36;;;;;;;6.70;1.42;;;15.80;99.90;;;;;;5053495;28;20455;-41
2022/08/06 06:11:03;;;;;;;4.40;1.45;;;15.70;99.90;;;;;;5052964;28;20449;-42
2022/08/06 06:13:30;;;;;;;5.53;1.50;;;14.90;99.90;;;;;;5053572;28;20025;-42
2022/08/06 06:16:33;;;;;;;7.07;1.25;;;15.70;99.90;;;;;;5052763;28;20472;-43
2022/08/06 06:19:14;;;;;;;4.53;1.20;;;15.40;99.90;;;;;;5051819;28;20109;-42
2022/08/06 06:21:40;;;;;;;3.10;1.00;;;15.80;94.50;;;;;;5051977;28;20710;-43
2022/08/06 06:24:35;;;;;;;4.20;1.10;;;15.80;94.20;;;;;;5052033;28;20303;-43
2022/08/06 06:27:07;;;;;;;2.60;1.20;;;15.70;93.70;;;;;;5049782;28;20044;-43
2022/08/06 06:29:56;;;;;;;2.72;1.08;;;15.70;94.20;;;;;;5048721;28;20098;-42
2022/08/06 06:32:44;;;;;;;3.90;1.00;;;15.50;93.20;;;;;;5047308;28;20100;-43
2022/08/06 06:35:32;;;;;;;4.20;1.35;;;17.30;90.70;;;;;;5047135;28;20164;-43
2022/08/06 06:38:03;;;;;;;4.63;1.10;;;16.10;93.80;;;;;;5049513;28;20052;-44
2022/08/06 06:40:56;;;;;;;5.78;0.98;;;16.20;90.80;;;;;;5049703;28;20603;-42
2022/08/06 06:43:24;;;;;;;3.45;0.82;;;17.70;91.30;;;;;;5049421;28;20048;-42
2022/08/06 06:46:02;;;;;;;5.03;0.93;;;18.20;90.70;;;;;;5049669;28;20037;-42
2022/08/06 06:48:44;;;;;;;6.03;1.10;;;16.90;72.10;;;;;;5051134;28;20571;-43
2022/08/06 06:51:16;;;;;;;3.25;0.82;;;17.20;62.20;;;;;;5050219;28;20179;-43
2022/08/06 06:53:45;;;;;;;3.05;0.80;;;17.30;52.10;;;;;;5049488;28;20382;-42
2022/08/06 06:56:16;;;;;;;2.10;0.60;;;18.40;64.70;;;;;;5050195;28;20044;-43
2022/08/06 06:58:48;;;;;;;3.78;0.88;;;20.00;38.40;;;;;;5049628;28;20052;-44
2022/08/06 07:01:16;;;;;;;4.15;1.27;;;19.50;3.90;;;;;;5050712;28;20371;-43
2022/08/06 07:03:43;;;;;;;2.05;0.82;;;20.30;1.00;;;;;;5052037;28;20389;-42
2022/08/06 07:06:11;;;;;;;4.88;0.80;;;21.10;1.00;;;;;;5050717;28;20480;-44
2022/08/06 07:08:45;;;;;;;2.67;0.80;;;22.20;99.90;;;;;;5052774;28;20041;-43
2022/08/06 07:11:18;;;;;;;2.55;0.82;;;22.50;99.90;;;;;;5051912;28;20032;-42
2022/08/06 07:13:46;;;;;;;3.92;0.93;;;22.50;99.90;;;;;;5052557;28;20078;-43
2022/08/06 07:16:15;;;;;;;3.17;0.80;;;23.40;99.90;;;;;;5050467;28;20516;-44
2022/08/06 07:18:43;;;;;;;4.32;0.80;;;24.50;99.90;;;;;;5052460;28;21136;-47
2022/08/06 07:21:10;;;;;;;3.17;0.73;;;25.50;1.00;;;;;;5053618;28;20045;-45
2022/08/06 07:23:36;;;;;;;3.67;0.95;;;26.60;99.90;;;;;;5051406;28;20052;-43
2022/08/06 07:26:04;;;;;;;3.10;0.98;;;26.70;99.90;;;;;;5051952;28;20048;-46
2022/08/06 07:28:30;;;;;;;3.20;1.20;;;27.40;99.90;;;;;;5052221;28;20048;-44
2022/08/06 07:30:59;;;;;;;5.32;1.10;;;26.90;99.80;;;;;;5052948;28;20071;-44
2022/08/06 07:33:25;;;;;;;4.47;1.33;;;26.40;99.60;;;;;;5053453;28;20048;-44
2022/08/06 07:35:54;;;;;;;2.53;1.10;;;26.20;99.90;;;;;;5051574;28;20035;-44
2022/08/06 07:38:21;;;;;;;7.03;1.38;;;25.80;99.60;;;;;;5052270;28;20040;-44
2022/08/06 07:40:57;;;;;;;3.03;1.13;;;25.30;99.90;;;;;;5052223;28;20046;-44
2022/08/06 07:43:28;;;;;;;4.20;1.40;;;24.90;99.60;;;;;;5053347;28;20492;-43
2022/08/06 07:45:56;;;;;;;3.27;1.10;;;24.60;99.90;;;;;;5054056;28;20040;-46
2022/08/06 07:48:32;;;;;;;3.28;1.20;;;24.20;99.90;;;;;;5050539;28;20222;-44
2022/08/06 07:50:59;;;;;;;3.58;1.02;;;24.10;99.40;;;;;;5054058;28;20052;-43
2022/08/06 07:53:26;;;;;;;6.43;1.10;;;23.40;99.90;;;;;;5052947;28;20047;-44
2022/08/06 07:55:52;;;;;;;6.22;1.20;;;22.70;99.90;;;;;;5053212;28;20048;-45
2022/08/06 07:58:19;;;;;;;3.65;1.17;;;22.40;99.90;;;;;;5052361;28;20037;-44
2022/08/06 08:00:49;;;;;;;2.63;0.98;;;21.90;99.90;;;;;;5052321;28;20040;-44
2022/08/06 08:06:22;;;;;;;4.82;1.10;;;22.60;99.90;;;;;;5054049;28;20051;-45
2022/08/06 08:09:09;;;;;;;4.50;0.98;;;22.90;99.90;;;;;;5055291;28;20076;-44
2022/08/06 08:11:40;;;;;;;3.33;1.02;;;22.40;99.90;;;;;;5055819;28;20512;-44
2022/08/06 08:14:08;;;;;;;3.10;1.03;;;22.00;99.90;;;;;;5056458;28;20139;-45
2022/08/06 08:16:34;;;;;;;2.80;0.70;;;21.90;99.90;;;;;;5056875;28;20574;-45
2022/08/06 08:19:00;;;;;;;1.83;0.60;;;21.50;99.90;;;;;;5056653;28;20047;-44
2022/08/06 08:21:27;;;;;;;3.38;0.80;;;21.60;99.90;;;;;;5055808;28;20428;-45
2022/08/06 08:23:54;;;;;;;11.27;1.27;;;21.20;99.90;;;;;;5053715;28;20055;-44
2022/08/06 08:26:23;;;;;;;5.53;1.25;;;20.90;99.90;;;;;;5055344;28;20044;-47
2022/08/06 08:28:48;;;;;;;3.25;1.13;;;20.90;99.90;;;;;;5054987;28;20044;-42
2022/08/06 08:31:14;;;;;;;4.07;1.50;;;20.60;99.90;;;;;;5054916;28;20051;-42
2022/08/06 08:33:42;;;;;;;5.65;1.42;;;21.90;99.90;;;;;;5056288;28;20218;-44
2022/08/06 08:36:09;;;;;;;7.70;2.00;;;19.90;99.90;;;;;;5055184;28;20478;-42
2022/08/06 08:38:35;;;;;;;4.07;1.70;;;19.80;99.90;;;;;;5055226;28;20119;-45
2022/08/06 08:41:15;;;;;;;3.60;1.52;;;19.70;99.90;;;;;;5056153;28;20033;-47
2022/08/06 08:43:50;;;;;;;3.25;1.35;;;19.40;99.90;;;;;;5055805;28;20044;-45
2022/08/06 08:46:17;;;;;;;7.28;1.70;;;20.30;99.90;;;;;;5054708;28;21869;-45
2022/08/06 08:48:43;;;;;;;5.63;1.30;;;19.00;99.90;;;;;;5056098;28;20048;-43
2022/08/06 08:51:12;;;;;;;6.18;1.40;;;18.90;99.90;;;;;;5056544;28;20082;-44
2022/08/06 08:53:45;;;;;;;6.53;1.17;;;18.60;99.90;;;;;;5054272;28;20652;-44
2022/08/06 08:56:12;;;;;;;5.00;1.60;;;18.60;1.00;;;;;;5056237;28;20052;-43
2022/08/06 08:58:40;;;;;;;6.63;1.10;;;19.60;1.00;;;;;;5042167;28;20524;-44
2022/08/06 09:01:08;;;;;;;6.30;1.40;;;18.30;99.90;;;;;;5054161;28;20496;-45
2022/08/06 09:03:39;;;;;;;6.05;1.45;;;18.30;99.90;;;;;;5053749;28;20699;-43
2022/08/06 09:06:06;;;;;;;4.67;1.10;;;18.10;99.90;;;;;;5054023;28;20550;-43
2022/08/06 09:08:36;;;;;;;3.83;1.00;;;18.10;99.90;;;;;;5052879;28;20283;-44
2022/08/06 09:11:02;;;;;;;4.43;1.10;;;18.20;99.90;;;;;;5054751;28;20048;-45
2022/08/06 09:13:29;;;;;;;4.82;1.17;;;18.50;1.00;;;;;;5054963;28;20043;-47
2022/08/06 09:15:56;;;;;;;6.57;1.23;;;21.20;99.90;;;;;;5055868;28;20044;-46
2022/08/06 09:18:23;;;;;;;4.78;1.48;;;19.40;29.20;;;;;;5055278;28;20094;-46
2022/08/06 09:20:49;;;;;;;3.72;1.10;;;20.00;1.00;;;;;;5054769;28;20044;-45
2022/08/06 09:23:18;;;;;;;4.28;1.10;;;20.30;99.90;;;;;;5055419;28;20492;-44
2022/08/06 09:25:49;;;;;;;3.00;1.08;;;20.30;99.90;;;;;;5055560;28;20516;-45
2022/08/06 09:28:38;;;;;;;;;;;19.90;99.90;;;;;;5054885;28;20166;-44
2022/08/06 09:31:07;;;;;;;5.05;1.40;;;19.70;99.90;;;;;;5053736;28;19924;-44
2022/08/06 09:33:36;;;;;;;4.15;1.33;;;19.30;99.90;;;;;;5054257;28;20037;-44
2022/08/06 09:36:10;;;;;;;5.38;1.50;;;19.30;99.90;;;;;;5055372;28;20140;-45
2022/08/06 09:38:53;;;;;;;4.15;1.23;;;19.20;99.90;;;;;;5054245;28;20209;-43
2022/08/06 09:41:22;;;;;;;4.95;1.52;;;19.10;99.90;;;;;;5053520;28;20127;-45
2022/08/06 09:43:50;;;;;;;6.30;1.40;;;20.70;84.40;;;;;;5054015;28;20042;-45
2022/08/06 09:46:18;;;;;;;3.92;1.30;;;20.30;77.50;;;;;;5055186;28;20072;-45
2022/08/06 09:49:02;;;;;;;3.97;1.40;;;18.90;99.90;;;;;;5056062;28;20143;-43
2022/08/06 09:51:29;;;;;;;4.00;1.50;;;19.00;99.90;;;;;;5053081;28;20033;-46
2022/08/06 09:53:57;;;;;;;5.95;1.63;;;18.90;99.90;;;;;;5053464;28;20042;-45
2022/08/06 09:56:25;;;;;;;13.32;3.42;;;19.10;99.90;;;;;;5054187;28;20119;-46
2022/08/06 09:58:58;;;;;;;8.20;2.35;;;19.90;99.90;;;;;;5054225;28;20563;-44
2022/08/06 10:01:24;;;;;;;2.92;1.30;;;19.90;99.90;;;;;;5054555;28;20555;-44
2022/08/06 10:03:52;;;;;;;3.78;1.30;;;21.00;77.70;;;;;;5053561;28;20036;-44
2022/08/06 10:06:22;;;;;;;3.65;1.55;;;19.90;2.20;;;;;;5049265;28;20067;-46
2022/08/06 10:08:50;;;;;;;6.45;1.73;;;20.20;1.00;;;;;;5053228;28;20052;-44
2022/08/06 10:11:34;;;;;;;5.38;1.80;;;20.20;1.00;;;;;;5053890;28;20879;-46
2022/08/06 10:14:00;;;;;;;4.00;1.60;;;20.50;1.00;;;;;;5054354;28;20032;-44
2022/08/06 10:16:32;;;;;;;5.20;1.50;;;20.30;99.90;;;;;;5053616;28;20051;-46
2022/08/06 10:18:59;;;;;;;3.40;1.33;;;21.90;99.90;;;;;;5053830;28;20045;-45
2022/08/06 10:21:30;;;;;;;3.47;1.80;;;21.00;99.90;;;;;;5053114;28;20072;-47
2022/08/06 10:24:02;;;;;;;4.72;1.65;;;21.60;99.90;;;;;;5052645;28;20057;-46
2022/08/06 10:26:33;;;;;;;4.40;1.55;;;21.80;1.00;;;;;;5051808;28;20496;-46
2022/08/06 10:29:05;;;;;;;4.53;1.58;;;22.40;99.90;;;;;;5052047;28;20492;-45
2022/08/06 10:31:36;;;;;;;5.03;1.85;;;22.90;99.90;;;;;;5052893;28;20028;-45
2022/08/06 10:34:15;;;;;;;3.47;1.63;;;22.50;99.90;;;;;;5052199;28;20524;-49
2022/08/06 10:36:57;;;;;;;6.75;1.60;;;24.70;21.70;;;;;;5052712;28;20044;-44
2022/08/06 10:39:31;;;;;;;3.95;1.50;;;22.80;1.00;;;;;;5053332;28;20420;-49
2022/08/06 10:41:58;;;;;;;5.38;1.95;;;22.50;1.00;;;;;;5054635;28;20097;-46
2022/08/06 10:44:24;;;;;;;3.58;1.70;;;22.00;1.00;;;;;;5052918;28;20064;-45
2022/08/06 10:46:54;;;;;;;6.75;1.70;;;22.10;1.00;;;;;;5053517;28;20060;-46
2022/08/06 10:49:21;;;;;;;3.72;1.80;;;22.20;1.00;;;;;;5053502;28;20045;-45
2022/08/06 10:51:50;;;;;;;3.45;1.80;;;22.00;1.00;;;;;;5052763;28;20048;-46
2022/08/06 10:54:18;;;;;;;6.05;1.80;;;21.60;1.00;;;;;;5054096;28;20040;-44
2022/08/06 10:56:46;;;;;;;7.38;2.25;;;22.00;1.00;;;;;;5053832;28;20048;-44
2022/08/06 10:59:13;;;;;;;3.83;2.20;;;21.10;1.00;;;;;;5052898;28;20036;-44
2022/08/06 11:02:04;;;;;;;3.45;1.70;;;21.30;1.00;;;;;;5052523;28;20028;-47
2022/08/06 11:04:50;;;;;;;3.28;1.95;;;21.60;99.90;;;;;;5051649;28;20044;-46
2022/08/06 11:07:27;;;;;;;3.92;1.73;;;22.10;99.90;;;;;;5050921;28;20121;-46
2022/08/06 11:10:22;;;;;;;5.78;2.13;;;22.60;99.90;;;;;;5052360;28;20537;-45
2022/08/06 11:13:05;;;;;;;4.63;2.03;;;22.50;99.90;;;;;;5052213;28;20056;-47
2022/08/06 11:15:35;;;;;;;3.88;1.90;;;22.40;99.90;;;;;;5050527;28;20040;-48
2022/08/06 11:18:06;;;;;;;3.63;2.00;;;24.00;99.90;;;;;;5052028;28;20036;-44
2022/08/06 11:20:32;;;;;;;4.03;2.05;;;21.90;99.90;;;;;;5049965;28;20785;-47
2022/08/06 11:23:20;;;;;;;5.72;2.20;;;21.60;99.90;;;;;;5051019;28;20051;-45
2022/08/06 11:25:55;;;;;;;4.20;2.13;;;21.40;99.90;;;;;;5052224;28;20060;-46
2022/08/06 11:28:27;;;;;;;4.32;2.25;;;21.70;99.90;;;;;;5050853;28;20093;-46
2022/08/06 11:30:55;;;;;;;4.20;2.13;;;21.60;99.90;;;;;;5051529;28;20036;-46
2022/08/06 11:33:32;;;;;;;3.92;2.13;;;22.10;99.90;;;;;;5052638;28;20044;-45
2022/08/06 11:36:01;;;;;;;3.55;1.90;;;22.20;99.90;;;;;;5050073;28;20041;-44
2022/08/06 11:38:51;;;;;;;4.30;2.20;;;22.30;99.90;;;;;;5051602;28;20123;-44
2022/08/06 11:41:21;;;;;;;6.28;2.40;;;22.00;99.90;;;;;;5055238;28;20072;-48
2022/08/06 11:43:53;;;;;;;8.88;2.80;;;22.10;99.90;;;;;;5054784;28;20037;-46
2022/08/06 11:46:24;;;;;;;4.57;2.40;;;22.00;99.90;;;;;;5054473;28;20049;-48
2022/08/06 11:48:59;;;;;;;4.00;2.08;;;22.10;99.90;;;;;;5054271;28;20037;-44
2022/08/06 11:51:42;;;;;;;4.78;2.42;;;22.70;99.90;;;;;;5055358;28;20044;-46
2022/08/06 11:54:08;;;;;;;4.60;1.88;;;23.00;99.90;;;;;;5055181;28;20123;-47
2022/08/06 11:56:34;;;;;;;5.55;2.20;;;23.40;99.90;;;;;;5056077;28;21081;-46
2022/08/06 11:59:14;;;;;;;6.47;2.30;;;23.30;99.90;;;;;;5055599;28;20067;-46
2022/08/06 12:01:46;;;;;;;3.88;2.22;;;23.30;99.90;;;;;;5055985;28;20068;-48
2022/08/06 12:04:38;;;;;;;4.03;2.13;;;23.30;99.90;;;;;;5055969;28;20496;-48
2022/08/06 12:07:27;;;;;;;3.50;2.08;;;23.40;99.90;;;;;;5055594;28;20098;-45
2022/08/06 12:10:04;;;;;;;4.03;2.17;;;23.60;99.90;;;;;;5056319;28;21000;-46
2022/08/06 12:12:31;;;;;;;4.95;2.35;;;23.50;99.90;;;;;;5056755;28;20044;-46
2022/08/06 12:14:59;;;;;;;3.85;2.33;;;23.40;99.90;;;;;;5056113;28;20416;-50
2022/08/06 12:17:27;;;;;;;4.43;1.98;;;23.80;99.90;;;;;;5053678;28;20075;-47
2022/08/06 12:19:57;;;;;;;4.18;2.17;;;23.70;99.90;;;;;;5056097;28;20606;-45
2022/08/06 12:22:23;;;;;;;3.78;2.20;;;23.70;1.00;;;;;;5054255;28;20067;-45
2022/08/06 12:24:54;;;;;;;3.42;1.95;;;23.70;99.90;;;;;;5056017;28;20465;-48
2022/08/06 12:27:23;;;;;;;4.50;2.42;;;23.90;99.90;;;;;;5056377;28;20036;-49
2022/08/06 12:29:57;;;;;;;3.92;2.22;;;23.20;1.00;;;;;;5055580;28;20055;-47
2022/08/06 12:32:26;;;;;;;4.20;2.17;;;23.00;99.90;;;;;;5056868;28;20044;-48
2022/08/06 12:34:53;;;;;;;5.40;2.30;;;22.10;99.90;;;;;;5056055;28;20048;-44
2022/08/06 12:37:19;;;;;;;6.28;2.50;;;22.00;99.90;;;;;;5055093;28;20042;-44
2022/08/06 12:42:31;;;;;;;6.80;2.20;;;21.70;99.90;;;;;;5056642;28;20051;-46
2022/08/06 12:44:57;;;;;;;4.72;2.30;;;22.60;91.90;;;;;;5056398;28;20109;-48
2022/08/06 12:47:25;;;;;;;6.35;2.83;;;22.60;99.90;;;;;;5054970;28;20231;-46
2022/08/06 12:49:53;;;;;;;6.25;2.50;;;23.20;1.00;;;;;;5054328;28;20032;-45
2022/08/06 12:52:20;;;;;;;4.00;2.45;;;23.20;99.90;;;;;;5054130;28;20037;-48
2022/08/06 12:54:47;;;;;;;4.40;2.53;;;23.20;80.90;;;;;;5054973;28;20094;-46
2022/08/06 12:57:30;;;;;;;4.47;2.25;;;23.30;99.90;;;;;;5055309;28;20586;-44
2022/08/06 12:59:57;;;;;;;3.35;2.10;;;23.30;1.00;;;;;;5053786;28;20040;-47
2022/08/06 13:02:25;;;;;;;5.57;2.38;;;23.20;9.00;;;;;;5054102;28;20195;-51
2022/08/06 13:04:55;;;;;;;5.65;2.53;;;22.90;99.90;;;;;;5053855;28;21315;-44
2022/08/06 13:07:21;;;;;;;4.30;2.10;;;22.80;68.50;;;;;;5054685;28;20405;-49
2022/08/06 13:09:48;;;;;;;5.10;2.63;;;22.80;70.40;;;;;;5053875;28;20221;-46
2022/08/06 13:12:18;;;;;;;4.88;2.05;;;23.00;75.30;;;;;;5053814;28;20032;-47
2022/08/06 13:14:58;;;;;;;5.55;2.90;;;23.00;77.30;;;;;;5054072;28;20626;-47